createdAt,value
2018-09-21T00:01:03.670Z,70.46
2018-09-21T00:03:32.046Z,70.34
2018-09-21T00:06:00.434Z,70.22
2018-09-21T00:08:29.727Z,70.02
2018-09-21T00:10:58.090Z,70.03
2018-09-21T00:13:26.473Z,69.86
2018-09-21T00:15:54.842Z,69.89
2018-09-21T00:18:23.210Z,69.35
2018-09-21T00:20:51.569Z,69.19
2018-09-21T00:23:19.929Z,68.93
2018-09-21T00:25:48.314Z,68.76
2018-09-21T00:28:16.681Z,68.24
2018-09-21T00:30:45.104Z,68.00
2018-09-21T00:33:13.465Z,67.89
2018-09-21T00:35:41.833Z,67.64
2018-09-21T00:38:10.188Z,67.35
2018-09-21T00:40:38.564Z,67.26
2018-09-21T00:43:06.973Z,66.95
2018-09-21T00:45:35.339Z,66.71
2018-09-21T00:48:03.704Z,66.53
2018-09-21T00:50:32.071Z,66.34
2018-09-21T00:53:00.454Z,66.10
2018-09-21T00:55:28.817Z,65.95
2018-09-21T00:57:57.194Z,65.73
2018-09-21T01:00:25.563Z,65.63
2018-09-21T01:02:53.925Z,65.59
2018-09-21T01:05:22.296Z,65.41
2018-09-21T01:07:50.657Z,65.27
2018-09-21T01:10:19.027Z,65.24
2018-09-21T01:12:47.385Z,65.23
2018-09-21T01:15:15.761Z,65.27
2018-09-21T01:17:44.140Z,65.26
2018-09-21T01:20:12.515Z,65.28
2018-09-21T01:22:40.876Z,65.32
2018-09-21T01:25:09.243Z,65.42
2018-09-21T01:27:37.613Z,65.38
2018-09-21T01:30:05.976Z,65.34
2018-09-21T01:32:34.342Z,65.35
2018-09-21T01:35:02.715Z,65.37
2018-09-21T01:37:31.093Z,65.44
2018-09-21T01:39:59.464Z,65.39
2018-09-21T01:42:31.567Z,65.40
2018-09-21T01:45:00.244Z,65.54
2018-09-21T01:47:28.832Z,65.80
2018-09-21T01:49:56.964Z,65.88
2018-09-21T01:52:25.331Z,65.90
2018-09-21T01:54:53.705Z,65.97
2018-09-21T01:57:22.083Z,66.13
2018-09-21T01:59:50.446Z,66.34
2018-09-21T02:02:18.808Z,66.42
2018-09-21T02:04:47.181Z,66.35
2018-09-21T02:07:15.545Z,66.19
2018-09-21T02:09:43.955Z,66.10
2018-09-21T02:12:12.284Z,66.08
2018-09-21T02:14:40.643Z,66.11
2018-09-21T02:17:09.025Z,66.08
2018-09-21T02:19:37.383Z,66.26
2018-09-21T02:22:05.765Z,66.29
2018-09-21T02:24:34.131Z,66.27
2018-09-21T02:27:02.503Z,66.29
2018-09-21T02:29:30.874Z,66.29
2018-09-21T02:31:59.249Z,66.32
2018-09-21T02:34:27.605Z,66.49
2018-09-21T02:36:55.972Z,66.60
2018-09-21T02:39:24.334Z,66.67
2018-09-21T02:41:52.708Z,66.97
2018-09-21T02:44:21.081Z,67.45
2018-09-21T02:46:49.588Z,67.35
2018-09-21T02:49:17.964Z,67.10
2018-09-21T02:51:46.322Z,66.94
2018-09-21T02:54:14.694Z,66.81
2018-09-21T02:56:43.093Z,66.69
2018-09-21T02:59:11.460Z,66.75
2018-09-21T03:01:39.816Z,66.90
2018-09-21T03:04:08.196Z,66.97
2018-09-21T03:06:36.576Z,67.23
2018-09-21T03:09:04.945Z,67.26
2018-09-21T03:11:33.326Z,67.65
2018-09-21T03:14:01.797Z,67.70
2018-09-21T03:16:30.170Z,67.89
2018-09-21T03:18:58.550Z,68.04
2018-09-21T03:21:26.939Z,68.00
2018-09-21T03:23:55.315Z,68.16
2018-09-21T03:26:23.679Z,68.27
2018-09-21T03:28:52.062Z,68.29
2018-09-21T03:31:20.429Z,68.38
2018-09-21T03:33:49.015Z,68.34
2018-09-21T03:36:17.164Z,68.64
2018-09-21T03:38:45.533Z,68.73
2018-09-21T03:41:13.910Z,68.74
2018-09-21T03:43:42.291Z,68.90
2018-09-21T03:46:10.655Z,68.73
2018-09-21T03:48:39.041Z,68.66
2018-09-21T03:51:07.409Z,68.75
2018-09-21T03:53:35.789Z,68.81
2018-09-21T03:56:04.167Z,68.82
2018-09-21T03:58:32.559Z,68.89
2018-09-21T04:01:00.925Z,68.93
2018-09-21T04:03:29.285Z,68.96
2018-09-21T04:05:57.651Z,68.79
2018-09-21T04:08:26.030Z,68.87
2018-09-21T04:10:54.408Z,68.84
2018-09-21T04:13:23.055Z,68.83
2018-09-21T04:15:51.421Z,68.92
2018-09-21T04:18:19.797Z,68.66
2018-09-21T04:20:48.169Z,68.14
2018-09-21T04:23:16.538Z,66.89
2018-09-21T04:25:44.894Z,66.21
2018-09-21T04:28:13.267Z,65.26
2018-09-21T04:30:41.632Z,65.11
2018-09-21T04:33:10.294Z,64.36
2018-09-21T04:35:38.673Z,64.15
2018-09-21T04:38:07.059Z,63.71
2018-09-21T04:40:35.452Z,63.34
2018-09-21T04:43:03.828Z,63.02
2018-09-21T04:45:32.210Z,62.62
2018-09-21T04:48:00.588Z,62.37
2018-09-21T04:50:28.957Z,62.33
2018-09-21T04:52:57.335Z,62.18
2018-09-21T04:55:25.736Z,61.96
2018-09-21T04:57:54.104Z,61.58
2018-09-21T05:00:23.466Z,61.86
2018-09-21T05:02:51.834Z,61.66
2018-09-21T05:05:20.216Z,61.54
2018-09-21T05:08:06.408Z,61.48
2018-09-21T05:10:34.725Z,61.31
2018-09-21T05:13:03.139Z,61.06
2018-09-21T05:15:31.517Z,61.02
2018-09-21T05:17:59.899Z,61.08
2018-09-21T05:20:28.258Z,60.94
2018-09-21T05:22:56.592Z,60.83
2018-09-21T05:25:24.939Z,60.73
2018-09-21T05:27:53.189Z,60.35
2018-09-21T05:30:21.610Z,60.40
2018-09-21T05:32:49.941Z,60.18
2018-09-21T05:35:18.410Z,59.98
2018-09-21T05:37:46.771Z,59.75
2018-09-21T05:40:15.164Z,59.67
2018-09-21T05:42:42.942Z,59.52
2018-09-21T05:45:11.293Z,59.34
2018-09-21T05:47:39.837Z,59.22
2018-09-21T05:50:08.669Z,59.17
2018-09-21T05:52:37.062Z,59.30
2018-09-21T05:55:05.382Z,59.30
2018-09-21T05:57:33.138Z,59.15
2018-09-21T06:00:02.044Z,59.02
2018-09-21T06:02:30.415Z,59.11
2018-09-21T06:04:58.707Z,58.90
2018-09-21T06:07:27.036Z,58.96
2018-09-21T06:09:55.377Z,58.81
2018-09-21T06:12:23.783Z,58.76
2018-09-21T06:14:51.466Z,58.69
2018-09-21T06:17:20.395Z,58.48
2018-09-21T06:19:48.751Z,58.24
2018-09-21T06:22:17.283Z,58.06
2018-09-21T06:24:45.037Z,58.05
2018-09-21T06:27:13.998Z,57.75
2018-09-21T06:29:42.365Z,57.31
2018-09-21T06:32:10.129Z,57.08
2018-09-21T06:34:39.054Z,57.20
2018-09-21T06:37:21.020Z,57.06
2018-09-21T06:39:49.354Z,56.59
2018-09-21T06:42:17.692Z,56.80
2018-09-21T06:44:46.026Z,56.44
2018-09-21T06:47:14.394Z,56.70
2018-09-21T06:49:42.752Z,56.65
2018-09-21T06:52:11.920Z,56.37
2018-09-21T06:54:39.427Z,56.45
2018-09-21T06:57:07.816Z,56.24
2018-09-21T06:59:36.151Z,56.24
2018-09-21T07:02:04.566Z,55.99
2018-09-21T07:04:32.690Z,55.54
2018-09-21T07:07:01.148Z,54.72
2018-09-21T07:09:29.496Z,53.97
2018-09-21T07:11:57.239Z,52.76
2018-09-21T07:14:25.593Z,52.80
2018-09-21T07:16:54.569Z,52.75
2018-09-21T07:19:22.294Z,53.11
2018-09-21T07:21:51.830Z,53.15
2018-09-21T07:24:19.912Z,53.36
2018-09-21T07:26:48.250Z,53.05
2018-09-21T07:29:16.018Z,52.86
2018-09-21T07:31:44.372Z,53.09
2018-09-21T07:34:12.714Z,53.08
2018-09-21T07:36:41.635Z,52.95
2018-09-21T07:39:09.955Z,53.19
2018-09-21T07:41:37.703Z,53.18
2018-09-21T07:44:06.606Z,53.10
2018-09-21T07:46:34.929Z,53.05
2018-09-21T07:49:03.386Z,53.06
2018-09-21T07:51:31.097Z,53.15
2018-09-21T07:54:00.027Z,53.27
2018-09-21T07:56:29.033Z,53.21
2018-09-21T07:58:56.727Z,53.07
2018-09-21T08:01:25.053Z,53.02
2018-09-21T08:03:53.649Z,52.78
2018-09-21T08:06:21.760Z,52.84
2018-09-21T08:08:50.111Z,52.35
2018-09-21T08:11:17.845Z,52.14
2018-09-21T08:13:46.762Z,51.75
2018-09-21T08:16:15.092Z,51.55
2018-09-21T08:18:43.419Z,51.34
2018-09-21T08:21:11.748Z,50.93
2018-09-21T08:23:40.092Z,50.73
2018-09-21T08:26:07.850Z,50.56
2018-09-21T08:28:36.759Z,49.88
2018-09-21T08:31:07.198Z,49.64
2018-09-21T08:33:35.400Z,49.22
2018-09-21T08:36:03.760Z,49.37
2018-09-21T08:38:32.170Z,49.18
2018-09-21T08:41:00.840Z,48.81
2018-09-21T08:43:28.963Z,48.48
2018-09-21T08:45:57.324Z,47.60
2018-09-21T08:48:25.678Z,47.55
2018-09-21T08:50:54.073Z,47.11
2018-09-21T08:53:22.502Z,45.88
2018-09-21T08:55:50.930Z,45.84
2018-09-21T08:58:19.571Z,45.83
2018-09-21T09:00:48.368Z,45.68
2018-09-21T09:03:16.204Z,45.25
2018-09-21T09:05:43.968Z,44.62
2018-09-21T09:08:12.785Z,44.49
2018-09-21T09:10:41.135Z,44.70
2018-09-21T09:13:08.881Z,44.68
2018-09-21T09:15:38.336Z,44.30
2018-09-21T09:18:06.451Z,44.14
2018-09-21T09:20:34.813Z,44.43
2018-09-21T09:23:03.253Z,44.63
2018-09-21T09:25:36.409Z,44.06
2018-09-21T09:28:04.908Z,43.93
2018-09-21T09:30:33.496Z,43.32
2018-09-21T09:33:01.904Z,43.06
2018-09-21T09:35:30.418Z,42.39
2018-09-21T09:37:59.045Z,42.82
2018-09-21T09:40:27.193Z,42.56
2018-09-21T09:42:57.589Z,42.28
2018-09-21T09:45:28.037Z,41.74
2018-09-21T09:47:55.023Z,41.82
2018-09-21T09:50:23.424Z,41.29
2018-09-21T09:52:51.849Z,41.20
2018-09-21T09:55:20.232Z,41.15
2018-09-21T09:57:49.888Z,40.84
2018-09-21T10:00:18.556Z,41.05
2018-09-21T10:02:46.731Z,40.94
2018-09-21T10:05:15.085Z,40.56
2018-09-21T10:07:42.854Z,40.15
2018-09-21T10:10:11.827Z,40.22
2018-09-21T10:12:40.152Z,39.96
2018-09-21T10:15:09.666Z,40.20
2018-09-21T10:17:37.172Z,39.73
2018-09-21T10:20:05.783Z,39.54
2018-09-21T10:22:33.872Z,38.87
2018-09-21T10:25:02.310Z,38.81
2018-09-21T10:27:30.836Z,39.24
2018-09-21T10:29:58.962Z,38.85
2018-09-21T10:32:27.294Z,38.59
2018-09-21T10:34:55.632Z,38.47
2018-09-21T10:37:23.388Z,38.79
2018-09-21T10:39:52.411Z,38.38
2018-09-21T10:42:20.685Z,38.43
2018-09-21T10:44:48.397Z,37.87
2018-09-21T10:47:16.720Z,37.40
2018-09-21T10:49:45.662Z,37.64
2018-09-21T10:52:13.405Z,37.99
2018-09-21T10:54:42.368Z,36.86
2018-09-21T10:57:10.093Z,36.75
2018-09-21T10:59:39.013Z,36.63
2018-09-21T11:02:07.422Z,36.71
2018-09-21T11:04:35.165Z,36.80
2018-09-21T11:07:11.577Z,36.49
2018-09-21T11:09:38.238Z,36.04
2018-09-21T11:12:06.598Z,35.54
2018-09-21T11:14:34.948Z,35.67
2018-09-21T11:17:03.275Z,35.28
2018-09-21T11:19:31.627Z,35.29
2018-09-21T11:21:59.972Z,34.46
2018-09-21T11:24:28.324Z,34.93
2018-09-21T11:26:56.102Z,34.49
2018-09-21T11:29:25.022Z,34.61
2018-09-21T11:31:53.352Z,34.11
2018-09-21T11:34:21.117Z,34.56
2018-09-21T11:36:50.039Z,34.55
2018-09-21T11:39:17.792Z,34.61
2018-09-21T11:41:46.693Z,34.30
2018-09-21T11:44:15.026Z,33.92
2018-09-21T11:46:43.467Z,34.12
2018-09-21T11:49:11.782Z,33.66
2018-09-21T11:51:40.141Z,33.16
2018-09-21T11:54:08.440Z,33.66
2018-09-21T11:56:36.774Z,33.67
2018-09-21T11:59:05.523Z,33.51
2018-09-21T12:01:33.873Z,32.88
2018-09-21T12:04:02.293Z,32.65
2018-09-21T12:06:31.693Z,31.71
2018-09-21T12:09:00.027Z,30.80
2018-09-21T12:11:27.788Z,31.00
2018-09-21T12:13:57.187Z,30.50
2018-09-21T12:16:25.747Z,30.08
2018-09-21T12:18:53.849Z,29.14
2018-09-21T12:21:22.525Z,29.49
2018-09-21T12:23:51.440Z,29.03
2018-09-21T12:26:19.779Z,30.02
2018-09-21T12:28:48.114Z,30.12
2018-09-21T12:31:16.461Z,29.83
2018-09-21T12:33:44.790Z,28.96
2018-09-21T12:36:13.365Z,29.03
2018-09-21T12:38:41.558Z,29.39
2018-09-21T12:41:09.778Z,29.74
2018-09-21T12:43:38.116Z,29.51
2018-09-21T12:46:06.452Z,28.89
2018-09-21T12:48:34.782Z,28.88
2018-09-21T12:51:03.718Z,29.03
2018-09-21T12:53:31.447Z,29.07
2018-09-21T12:55:59.214Z,28.66
2018-09-21T12:58:28.280Z,28.20
2018-09-21T13:00:56.593Z,27.91
2018-09-21T13:03:24.944Z,27.76
2018-09-21T13:05:53.148Z,27.38
2018-09-21T13:08:22.094Z,27.53
2018-09-21T13:10:50.419Z,27.55
2018-09-21T13:13:18.744Z,27.62
2018-09-21T13:15:47.085Z,27.95
2018-09-21T13:18:14.845Z,27.25
2018-09-21T13:20:43.802Z,26.93
2018-09-21T13:23:12.148Z,26.04
2018-09-21T13:25:40.599Z,26.32
2018-09-21T13:28:08.881Z,26.82
2018-09-21T13:30:37.233Z,26.57
2018-09-21T13:33:04.981Z,26.31
2018-09-21T13:35:33.930Z,25.40
2018-09-21T13:38:02.249Z,23.78
2018-09-21T13:40:30.590Z,23.96
2018-09-21T13:42:58.910Z,24.37
2018-09-21T13:45:27.243Z,24.29
2018-09-21T13:47:54.998Z,24.42
2018-09-21T13:50:23.887Z,24.35
2018-09-21T13:52:52.246Z,24.85
2018-09-21T13:55:46.235Z,25.38
2018-09-21T13:58:14.604Z,25.98
2018-09-21T14:00:42.357Z,25.64
2018-09-21T14:03:11.496Z,24.84
2018-09-21T14:05:39.685Z,24.09
2018-09-21T14:08:08.063Z,24.53
2018-09-21T14:10:36.398Z,24.47
2018-09-21T14:13:04.730Z,24.15
2018-09-21T14:15:33.050Z,24.28
2018-09-21T14:18:01.394Z,24.36
2018-09-21T14:20:30.307Z,25.13
2018-09-21T14:22:57.468Z,25.07
2018-09-21T14:25:25.807Z,24.86
2018-09-21T14:27:54.715Z,24.82
2018-09-21T14:30:23.975Z,25.01
2018-09-21T14:32:52.328Z,24.72
2018-09-21T14:35:20.081Z,24.19
2018-09-21T14:37:48.421Z,24.12
2018-09-21T14:40:16.757Z,24.31
2018-09-21T14:42:45.085Z,24.87
2018-09-21T14:45:13.995Z,25.10
2018-09-21T14:47:41.758Z,26.05
2018-09-21T14:50:11.130Z,27.01
2018-09-21T14:52:39.250Z,27.44
2018-09-21T14:55:07.578Z,28.10
2018-09-21T14:57:35.958Z,28.91
2018-09-21T15:00:04.405Z,29.42
2018-09-21T15:02:32.750Z,29.91
2018-09-21T15:05:01.112Z,30.31
2018-09-21T15:07:29.476Z,31.24
2018-09-21T15:09:57.887Z,31.70
2018-09-21T15:12:26.368Z,31.87
2018-09-21T15:14:54.705Z,32.30
2018-09-21T15:20:12.828Z,33.11
2018-09-21T15:22:41.276Z,33.37
2018-09-21T15:25:09.544Z,33.19
2018-09-21T15:27:38.216Z,33.29
2018-09-21T15:30:06.556Z,33.33
2018-09-21T15:32:34.896Z,33.56
2018-09-21T15:35:03.229Z,33.84
2018-09-21T15:37:30.983Z,34.61
2018-09-21T15:39:59.893Z,34.51
2018-09-21T15:42:28.232Z,34.72
2018-09-21T15:44:56.575Z,34.90
2018-09-21T15:47:24.909Z,34.85
2018-09-21T15:49:53.534Z,34.89
2018-09-21T15:52:21.846Z,35.15
2018-09-21T15:54:50.164Z,35.10
2018-09-21T15:57:19.773Z,35.16
2018-09-21T15:59:48.127Z,35.21
2018-09-21T16:02:15.881Z,35.55
2018-09-21T16:04:44.210Z,35.19
2018-09-21T16:07:13.162Z,35.44
2018-09-21T16:09:40.887Z,35.39
2018-09-21T16:12:09.845Z,35.68
2018-09-21T16:14:37.581Z,35.52
2018-09-21T16:17:06.485Z,35.67
2018-09-21T16:19:34.820Z,35.72
2018-09-21T16:22:04.026Z,35.89
2018-09-21T16:24:32.345Z,36.02
2018-09-21T16:27:00.668Z,36.05
2018-09-21T16:29:28.415Z,36.11
2018-09-21T16:31:57.322Z,36.25
2018-09-21T16:34:25.916Z,36.32
2018-09-21T16:36:54.230Z,36.37
2018-09-21T16:39:22.565Z,36.63
2018-09-21T16:41:50.888Z,36.55
2018-09-21T16:44:18.625Z,36.72
2018-09-21T16:46:47.526Z,36.99
2018-09-21T16:49:15.842Z,36.83
2018-09-21T16:51:43.635Z,36.90
2018-09-21T16:54:12.489Z,36.97
2018-09-21T16:56:40.806Z,37.18
2018-09-21T16:59:09.125Z,37.51
2018-09-21T17:01:36.898Z,37.52
2018-09-21T17:04:05.230Z,37.91
2018-09-21T17:06:33.666Z,38.12
2018-09-21T17:09:02.026Z,38.37
2018-09-21T17:11:31.122Z,38.49
2018-09-21T17:13:59.410Z,38.60
2018-09-21T17:16:27.743Z,38.96
2018-09-21T17:18:56.259Z,39.16
2018-09-21T17:21:24.634Z,39.28
2018-09-21T17:23:53.016Z,39.47
2018-09-21T17:26:21.479Z,39.43
2018-09-21T17:28:49.924Z,39.41
2018-09-21T17:31:18.324Z,39.38
2018-09-21T17:36:45.760Z,39.51
2018-09-21T17:39:15.977Z,39.34
2018-09-21T17:41:47.316Z,39.39
2018-09-21T17:46:54.592Z,39.28
2018-09-21T17:49:29.514Z,39.35
2018-09-21T17:51:57.887Z,39.38
2018-09-21T17:54:27.341Z,39.22
2018-09-21T17:56:56.239Z,39.25
2018-09-21T17:59:24.572Z,39.18
2018-09-21T18:01:52.977Z,39.10
2018-09-21T18:04:21.406Z,39.08
2018-09-21T18:06:49.771Z,40.73
2018-09-21T18:09:18.210Z,44.01
2018-09-21T18:11:47.331Z,46.49
2018-09-21T18:14:17.380Z,49.41
2018-09-21T18:16:44.907Z,50.91
2018-09-21T18:19:13.259Z,53.68
2018-09-21T18:21:41.615Z,56.93
2018-09-21T18:24:09.973Z,57.30
2018-09-21T18:26:38.315Z,60.04
2018-09-21T18:29:06.668Z,60.08
2018-09-21T18:31:35.164Z,61.39
2018-09-21T18:34:03.699Z,62.85
2018-09-21T18:36:31.852Z,64.04
2018-09-21T18:39:00.914Z,63.34
2018-09-21T18:41:29.069Z,64.63
2018-09-21T18:43:57.614Z,64.11
2018-09-21T18:46:25.948Z,64.09
2018-09-21T18:48:54.273Z,65.41
2018-09-21T18:51:22.625Z,66.67
2018-09-21T18:53:50.983Z,66.63
2018-09-21T18:56:19.316Z,65.45
2018-09-21T18:58:47.654Z,64.59
2018-09-21T19:01:16.015Z,65.31
2018-09-21T19:03:44.362Z,65.05
2018-09-21T19:06:12.807Z,65.57
2018-09-21T19:08:41.443Z,65.57
2018-09-21T19:11:09.892Z,65.37
2018-09-21T19:13:38.239Z,65.01
2018-09-21T19:16:06.044Z,64.30
2018-09-21T19:18:34.989Z,63.86
2018-09-21T19:21:03.353Z,64.24
2018-09-21T19:23:31.760Z,66.29
2018-09-21T19:26:00.168Z,71.13
2018-09-21T19:28:28.539Z,74.74
2018-09-21T19:30:56.293Z,77.30
2018-09-21T19:33:25.215Z,77.60
2018-09-21T19:35:53.588Z,78.65
2018-09-21T19:38:22.459Z,79.84
2018-09-21T19:40:51.703Z,80.97
2018-09-21T19:43:19.498Z,81.34
2018-09-21T19:45:48.442Z,81.39
2018-09-21T19:48:16.849Z,81.46
2018-09-21T19:50:45.214Z,80.92
2018-09-21T19:53:13.597Z,80.65
2018-09-21T19:55:42.049Z,80.69
2018-09-21T19:58:10.392Z,80.18
2018-09-21T20:00:38.845Z,80.45
2018-09-21T20:03:07.183Z,80.61
2018-09-21T20:05:35.542Z,84.92
2018-09-21T20:08:03.896Z,89.02
2018-09-21T20:10:32.323Z,95.37
2018-09-21T20:13:01.137Z,100.00
2018-09-21T20:15:29.989Z,100.00
2018-09-21T20:17:58.221Z,100.00
2018-09-21T20:20:27.651Z,100.00
2018-09-21T20:22:55.775Z,100.00
2018-09-21T20:25:24.167Z,100.00
2018-09-21T20:27:52.503Z,100.00
2018-09-21T20:30:20.898Z,100.00
2018-09-21T20:32:55.057Z,100.00
2018-09-21T20:35:23.462Z,100.00
2018-09-21T20:37:51.783Z,100.00
2018-09-21T20:40:20.156Z,100.00
2018-09-21T20:42:49.384Z,100.00
2018-09-21T20:45:17.726Z,100.00
2018-09-21T20:47:46.074Z,100.00
2018-09-21T20:50:14.822Z,100.00
2018-09-21T20:52:43.820Z,100.00
2018-09-21T20:55:12.159Z,100.00
2018-09-21T20:57:40.537Z,100.00
2018-09-21T21:00:09.017Z,100.00
2018-09-21T21:02:37.300Z,100.00
2018-09-21T21:05:05.738Z,100.00
2018-09-21T21:07:34.091Z,100.00
2018-09-21T21:10:02.634Z,100.00
2018-09-21T21:12:30.955Z,100.00
2018-09-21T21:14:59.406Z,100.00
2018-09-21T21:17:27.887Z,100.00
2018-09-21T21:19:56.278Z,100.00
2018-09-21T21:22:24.661Z,100.00
2018-09-21T21:24:53.081Z,100.00
2018-09-21T21:27:21.375Z,100.00
2018-09-21T21:29:49.760Z,100.00
2018-09-21T21:32:18.100Z,100.00
2018-09-21T21:34:46.442Z,100.00
2018-09-21T21:37:14.776Z,100.00
2018-09-21T21:39:43.568Z,100.00
2018-09-21T21:42:11.962Z,100.00
2018-09-21T21:44:39.706Z,100.00
2018-09-21T21:47:08.638Z,100.00
2018-09-21T21:49:36.972Z,100.00
2018-09-21T21:52:05.368Z,100.00
2018-09-21T21:54:33.139Z,100.00
2018-09-21T21:57:02.058Z,100.00
2018-09-21T21:59:30.396Z,100.00
2018-09-21T22:01:58.145Z,100.00
2018-09-21T22:04:26.489Z,100.00
2018-09-21T22:06:54.832Z,100.00
2018-09-21T22:09:23.740Z,100.00
2018-09-21T22:11:52.069Z,100.00
2018-09-21T22:14:19.814Z,100.00
2018-09-21T22:16:48.153Z,100.00
2018-09-21T22:19:17.063Z,100.00
2018-09-21T22:21:45.439Z,100.00
2018-09-21T22:24:14.679Z,100.00
2018-09-21T22:26:42.709Z,100.00
2018-09-21T22:29:10.444Z,100.00
2018-09-21T22:31:38.786Z,100.00
2018-09-21T22:34:07.148Z,100.00
2018-09-21T22:36:35.488Z,100.00
2018-09-21T22:39:04.373Z,100.00
2018-09-21T22:41:32.690Z,100.00
2018-09-21T22:44:00.469Z,100.00
2018-09-21T22:46:29.387Z,100.00
2018-09-21T22:48:57.936Z,100.00
2018-09-21T22:51:25.464Z,100.00
2018-09-21T22:53:53.789Z,100.00
2018-09-21T22:56:22.696Z,100.00
2018-09-21T22:58:51.024Z,100.00
2018-09-21T23:01:18.776Z,100.00
2018-09-21T23:03:47.678Z,100.00
2018-09-21T23:06:16.662Z,100.00
2018-09-21T23:08:44.987Z,100.00
2018-09-21T23:11:13.352Z,100.00
2018-09-21T23:13:41.088Z,100.00
2018-09-21T23:16:09.409Z,100.00
2018-09-21T23:18:38.318Z,100.00
2018-09-21T23:21:06.079Z,100.00
2018-09-21T23:23:35.019Z,100.00
2018-09-21T23:26:03.344Z,99.81
2018-09-21T23:28:31.095Z,100.00
2018-09-21T23:30:59.995Z,99.90
2018-09-21T23:33:28.344Z,99.83
2018-09-21T23:35:56.081Z,99.70
2018-09-21T23:38:24.996Z,100.00
2018-09-21T23:40:53.365Z,99.81
2018-09-21T23:43:21.681Z,99.68
2018-09-21T23:45:49.998Z,98.08
2018-09-21T23:48:18.322Z,98.29
2018-09-21T23:50:46.056Z,98.52
2018-09-21T23:53:14.378Z,97.86
2018-09-21T23:55:43.289Z,98.29
2018-09-21T23:58:11.613Z,98.70
